Ganser Bar, California
Current Conditions -  °F | °C
As of 12:55 AM on Thursday 23 Oct 2014 (Local Time) from KCIC Reporting Station
Broken Clouds Broken Clouds  
Wind Chill: 66°   Ceiling: 11000
Heat Index: 66°   Visibility: 10mi
Dew Point: 41°   Wind: 3mph
Humidity: 40%   Direction: 150°SSE
Pressure: 30.01"   Gusts: NA
Location:  40.0464°N, 121.282°W
Report Text: KCIC 230755Z AUTO 15003KT 10SM FEW065 BKN110 19/05 A3001 RMK AO1
Loading
Personal Weather Stations






























Interactive Weather Map
Tropical Storm Tracking
New forecast layout! Learn more

10-Day Weather Forecast

Advertisements
Track Severe Weather on mobile